sensor_id;sensor_type;location;lat;lon;timestamp;pressure;altitude;pressure_sealevel;temperature;humidity
41712;BME280;27399;51.516;13.670;2023-08-08T00:00:38;100144.19;;;17.40;73.72
41712;BME280;27399;51.516;13.670;2023-08-08T00:03:05;100140.03;;;17.31;74.61
41712;BME280;27399;51.516;13.670;2023-08-08T00:05:30;100146.81;;;17.19;73.90
41712;BME280;27399;51.516;13.670;2023-08-08T00:07:56;100145.50;;;17.30;73.94
41712;BME280;27399;51.516;13.670;2023-08-08T00:10:22;100138.81;;;17.18;73.52
41712;BME280;27399;51.516;13.670;2023-08-08T00:12:47;100146.31;;;17.32;73.39
41712;BME280;27399;51.516;13.670;2023-08-08T00:15:13;100133.09;;;17.26;74.15
41712;BME280;27399;51.516;13.670;2023-08-08T00:17:39;100138.47;;;17.26;74.13
41712;BME280;27399;51.516;13.670;2023-08-08T00:20:05;100144.69;;;17.06;73.93
41712;BME280;27399;51.516;13.670;2023-08-08T00:22:32;100140.44;;;17.22;74.60
41712;BME280;27399;51.516;13.670;2023-08-08T00:24:58;100136.41;;;17.10;73.75
41712;BME280;27399;51.516;13.670;2023-08-08T00:27:24;100135.03;;;17.22;73.28
41712;BME280;27399;51.516;13.670;2023-08-08T00:29:53;100150.91;;;17.30;74.66
41712;BME280;27399;51.516;13.670;2023-08-08T00:32:20;100139.78;;;17.15;73.83
41712;BME280;27399;51.516;13.670;2023-08-08T00:34:46;100144.38;;;17.13;73.91
41712;BME280;27399;51.516;13.670;2023-08-08T00:37:12;100144.75;;;17.26;74.10
41712;BME280;27399;51.516;13.670;2023-08-08T00:39:40;100148.56;;;16.98;74.35
41712;BME280;27399;51.516;13.670;2023-08-08T00:42:14;100145.91;;;16.97;75.33
41712;BME280;27399;51.516;13.670;2023-08-08T00:44:40;100145.06;;;16.96;74.26
41712;BME280;27399;51.516;13.670;2023-08-08T00:47:09;100158.69;;;16.92;74.60
41712;BME280;27399;51.516;13.670;2023-08-08T00:49:35;100152.19;;;16.97;74.27
41712;BME280;27399;51.516;13.670;2023-08-08T00:52:02;100142.28;;;16.98;74.05
41712;BME280;27399;51.516;13.670;2023-08-08T00:54:28;100156.91;;;16.67;75.02
41712;BME280;27399;51.516;13.670;2023-08-08T00:56:55;100147.78;;;16.95;75.10
41712;BME280;27399;51.516;13.670;2023-08-08T00:59:21;100148.56;;;16.75;75.46
41712;BME280;27399;51.516;13.670;2023-08-08T01:01:46;100130.22;;;16.84;75.08
41712;BME280;27399;51.516;13.670;2023-08-08T01:04:12;100158.41;;;16.76;75.59
41712;BME280;27399;51.516;13.670;2023-08-08T01:06:47;100136.44;;;16.39;75.50
41712;BME280;27399;51.516;13.670;2023-08-08T01:09:25;100145.31;;;16.65;76.14
41712;BME280;27399;51.516;13.670;2023-08-08T01:11:54;100139.75;;;16.46;76.70
41712;BME280;27399;51.516;13.670;2023-08-08T01:14:21;100140.84;;;16.65;76.12
41712;BME280;27399;51.516;13.670;2023-08-08T01:16:50;100135.06;;;16.27;76.85
41712;BME280;27399;51.516;13.670;2023-08-08T01:19:25;100129.47;;;16.33;77.35
41712;BME280;27399;51.516;13.670;2023-08-08T01:21:53;100133.41;;;16.48;77.49
41712;BME280;27399;51.516;13.670;2023-08-08T01:24:20;100125.53;;;16.18;78.00
41712;BME280;27399;51.516;13.670;2023-08-08T01:26:47;100130.25;;;15.86;78.84
41712;BME280;27399;51.516;13.670;2023-08-08T01:29:13;100130.00;;;16.18;78.15
41712;BME280;27399;51.516;13.670;2023-08-08T01:31:38;100123.19;;;16.33;78.32
41712;BME280;27399;51.516;13.670;2023-08-08T01:34:04;100121.34;;;16.09;78.96
41712;BME280;27399;51.516;13.670;2023-08-08T01:39:17;100120.69;;;16.03;80.04
41712;BME280;27399;51.516;13.670;2023-08-08T01:41:47;100120.75;;;16.26;79.27
41712;BME280;27399;51.516;13.670;2023-08-08T01:44:14;100121.09;;;16.17;79.87
41712;BME280;27399;51.516;13.670;2023-08-08T01:46:41;100124.97;;;16.08;80.37
41712;BME280;27399;51.516;13.670;2023-08-08T01:49:09;100135.41;;;15.92;80.40
41712;BME280;27399;51.516;13.670;2023-08-08T01:51:35;100133.69;;;16.15;80.10
41712;BME280;27399;51.516;13.670;2023-08-08T01:54:00;100141.44;;;15.99;80.67
41712;BME280;27399;51.516;13.670;2023-08-08T01:56:26;100134.41;;;16.20;80.03
41712;BME280;27399;51.516;13.670;2023-08-08T01:58:52;100136.13;;;15.98;80.55
41712;BME280;27399;51.516;13.670;2023-08-08T02:01:18;100131.44;;;16.03;80.24
41712;BME280;27399;51.516;13.670;2023-08-08T02:03:44;100122.75;;;15.69;80.67
41712;BME280;27399;51.516;13.670;2023-08-08T02:06:09;100136.28;;;15.66;81.48
41712;BME280;27399;51.516;13.670;2023-08-08T02:08:35;100132.97;;;16.10;80.28
41712;BME280;27399;51.516;13.670;2023-08-08T02:11:01;100132.78;;;16.16;80.08
41712;BME280;27399;51.516;13.670;2023-08-08T02:13:27;100135.28;;;16.21;79.94
41712;BME280;27399;51.516;13.670;2023-08-08T02:15:52;100138.81;;;16.23;79.86
41712;BME280;27399;51.516;13.670;2023-08-08T02:18:18;100130.41;;;16.07;80.23
41712;BME280;27399;51.516;13.670;2023-08-08T02:20:44;100142.09;;;16.06;80.03
41712;BME280;27399;51.516;13.670;2023-08-08T02:23:10;100128.69;;;15.52;80.96
41712;BME280;27399;51.516;13.670;2023-08-08T02:25:35;100123.78;;;15.92;80.25
41712;BME280;27399;51.516;13.670;2023-08-08T02:28:01;100125.69;;;15.88;80.89
41712;BME280;27399;51.516;13.670;2023-08-08T02:30:27;100128.50;;;15.85;80.68
41712;BME280;27399;51.516;13.670;2023-08-08T02:32:53;100115.34;;;15.49;81.55
41712;BME280;27399;51.516;13.670;2023-08-08T02:35:19;100132.78;;;15.91;80.62
41712;BME280;27399;51.516;13.670;2023-08-08T02:37:45;100133.38;;;15.99;80.58
41712;BME280;27399;51.516;13.670;2023-08-08T02:40:10;100136.06;;;15.72;81.21
41712;BME280;27399;51.516;13.670;2023-08-08T02:42:36;100131.34;;;15.79;80.83
41712;BME280;27399;51.516;13.670;2023-08-08T02:45:02;100131.69;;;15.43;82.17
41712;BME280;27399;51.516;13.670;2023-08-08T02:47:28;100129.63;;;15.51;81.63
41712;BME280;27399;51.516;13.670;2023-08-08T02:49:54;100131.78;;;15.40;82.07
41712;BME280;27399;51.516;13.670;2023-08-08T02:52:20;100119.63;;;15.82;80.75
41712;BME280;27399;51.516;13.670;2023-08-08T02:54:45;100123.50;;;15.46;82.33
41712;BME280;27399;51.516;13.670;2023-08-08T02:57:14;100127.69;;;15.55;81.95
41712;BME280;27399;51.516;13.670;2023-08-08T02:59:43;100130.97;;;15.64;81.82
41712;BME280;27399;51.516;13.670;2023-08-08T03:02:08;100131.06;;;15.61;81.36
41712;BME280;27399;51.516;13.670;2023-08-08T03:04:34;100127.41;;;15.36;81.75
41712;BME280;27399;51.516;13.670;2023-08-08T03:07:00;100134.69;;;15.33;81.54
41712;BME280;27399;51.516;13.670;2023-08-08T03:09:30;100115.97;;;15.02;82.19
41712;BME280;27399;51.516;13.670;2023-08-08T03:11:56;100097.06;;;14.77;83.48
41712;BME280;27399;51.516;13.670;2023-08-08T03:14:21;100124.66;;;15.10;82.62
41712;BME280;27399;51.516;13.670;2023-08-08T03:16:47;100124.03;;;15.02;83.34
41712;BME280;27399;51.516;13.670;2023-08-08T03:19:13;100123.41;;;15.22;82.64
41712;BME280;27399;51.516;13.670;2023-08-08T03:21:39;100123.88;;;15.35;81.83
41712;BME280;27399;51.516;13.670;2023-08-08T03:24:05;100125.56;;;15.38;81.70
41712;BME280;27399;51.516;13.670;2023-08-08T03:26:30;100109.13;;;15.20;81.89
41712;BME280;27399;51.516;13.670;2023-08-08T03:28:56;100129.91;;;15.42;81.53
41712;BME280;27399;51.516;13.670;2023-08-08T03:31:22;100114.06;;;15.06;81.82
41712;BME280;27399;51.516;13.670;2023-08-08T03:33:49;100114.41;;;15.23;81.77
41712;BME280;27399;51.516;13.670;2023-08-08T03:36:15;100127.78;;;14.96;81.86
41712;BME280;27399;51.516;13.670;2023-08-08T03:38:41;100126.63;;;15.05;81.72
41712;BME280;27399;51.516;13.670;2023-08-08T03:41:10;100125.84;;;15.01;82.19
41712;BME280;27399;51.516;13.670;2023-08-08T03:43:35;100107.84;;;15.03;81.86
41712;BME280;27399;51.516;13.670;2023-08-08T03:46:01;100125.03;;;14.98;81.79
41712;BME280;27399;51.516;13.670;2023-08-08T03:48:27;100113.19;;;15.05;82.60
41712;BME280;27399;51.516;13.670;2023-08-08T03:50:52;100106.00;;;15.06;81.81
41712;BME280;27399;51.516;13.670;2023-08-08T03:53:18;100117.94;;;14.97;82.12
41712;BME280;27399;51.516;13.670;2023-08-08T03:55:44;100121.66;;;14.93;82.36
41712;BME280;27399;51.516;13.670;2023-08-08T03:58:10;100118.66;;;15.02;82.56
41712;BME280;27399;51.516;13.670;2023-08-08T04:00:37;100117.34;;;14.87;82.20
41712;BME280;27399;51.516;13.670;2023-08-08T04:03:05;100104.22;;;14.76;82.40
41712;BME280;27399;51.516;13.670;2023-08-08T04:05:30;100108.44;;;14.85;82.44
41712;BME280;27399;51.516;13.670;2023-08-08T04:07:56;100113.22;;;15.03;81.54
41712;BME280;27399;51.516;13.670;2023-08-08T04:10:22;100118.03;;;14.94;82.17
41712;BME280;27399;51.516;13.670;2023-08-08T04:12:48;100109.09;;;14.93;81.73
41712;BME280;27399;51.516;13.670;2023-08-08T04:15:14;100110.41;;;15.08;81.74
41712;BME280;27399;51.516;13.670;2023-08-08T04:17:39;100111.94;;;15.44;80.93
41712;BME280;27399;51.516;13.670;2023-08-08T04:20:05;100109.31;;;15.14;81.37
41712;BME280;27399;51.516;13.670;2023-08-08T04:22:32;100105.31;;;15.27;81.42
41712;BME280;27399;51.516;13.670;2023-08-08T04:24:57;100124.88;;;15.04;82.40
41712;BME280;27399;51.516;13.670;2023-08-08T04:27:23;100125.94;;;15.27;81.69
41712;BME280;27399;51.516;13.670;2023-08-08T04:29:49;100127.41;;;15.09;81.49
41712;BME280;27399;51.516;13.670;2023-08-08T04:32:15;100113.97;;;15.37;80.81
41712;BME280;27399;51.516;13.670;2023-08-08T04:34:41;100130.09;;;15.36;80.65
41712;BME280;27399;51.516;13.670;2023-08-08T04:37:07;100122.31;;;15.55;80.53
41712;BME280;27399;51.516;13.670;2023-08-08T04:39:32;100128.53;;;15.57;80.59
41712;BME280;27399;51.516;13.670;2023-08-08T04:41:58;100127.03;;;15.48;80.58
41712;BME280;27399;51.516;13.670;2023-08-08T04:44:24;100127.03;;;15.48;80.87
41712;BME280;27399;51.516;13.670;2023-08-08T04:46:50;100129.91;;;15.42;80.63
41712;BME280;27399;51.516;13.670;2023-08-08T04:49:16;100132.91;;;15.59;80.78
41712;BME280;27399;51.516;13.670;2023-08-08T04:51:41;100124.25;;;15.51;80.94
41712;BME280;27399;51.516;13.670;2023-08-08T04:54:07;100128.31;;;15.63;81.13
41712;BME280;27399;51.516;13.670;2023-08-08T04:56:33;100125.38;;;15.71;80.28
41712;BME280;27399;51.516;13.670;2023-08-08T04:58:59;100117.91;;;15.79;80.31
41712;BME280;27399;51.516;13.670;2023-08-08T05:01:24;100127.72;;;15.26;80.79
41712;BME280;27399;51.516;13.670;2023-08-08T05:03:50;100129.13;;;15.65;80.56
41712;BME280;27399;51.516;13.670;2023-08-08T05:06:16;100137.09;;;15.68;80.75
41712;BME280;27399;51.516;13.670;2023-08-08T05:08:41;100128.06;;;15.44;81.55
41712;BME280;27399;51.516;13.670;2023-08-08T05:11:07;100125.69;;;15.61;80.85
41712;BME280;27399;51.516;13.670;2023-08-08T05:13:33;100130.97;;;15.64;80.66
41712;BME280;27399;51.516;13.670;2023-08-08T05:15:58;100122.56;;;15.74;80.73
41712;BME280;27399;51.516;13.670;2023-08-08T05:18:24;100123.28;;;15.79;80.54
41712;BME280;27399;51.516;13.670;2023-08-08T05:20:49;100130.69;;;15.45;81.35
41712;BME280;27399;51.516;13.670;2023-08-08T05:23:15;100116.03;;;15.56;80.88
41712;BME280;27399;51.516;13.670;2023-08-08T05:25:41;100122.44;;;15.77;80.97
41712;BME280;27399;51.516;13.670;2023-08-08T05:28:07;100117.34;;;15.42;80.97
41712;BME280;27399;51.516;13.670;2023-08-08T05:30:33;100108.06;;;15.78;80.56
41712;BME280;27399;51.516;13.670;2023-08-08T05:32:58;100111.22;;;15.65;80.16
41712;BME280;27399;51.516;13.670;2023-08-08T05:35:24;100122.78;;;15.94;80.57
41712;BME280;27399;51.516;13.670;2023-08-08T05:37:50;100118.00;;;16.03;79.86
41712;BME280;27399;51.516;13.670;2023-08-08T05:40:15;100121.72;;;15.99;80.15
41712;BME280;27399;51.516;13.670;2023-08-08T05:42:41;100122.06;;;15.89;79.35
41712;BME280;27399;51.516;13.670;2023-08-08T05:45:07;100111.69;;;16.04;80.17
41712;BME280;27399;51.516;13.670;2023-08-08T05:47:33;100127.25;;;15.94;80.17
41712;BME280;27399;51.516;13.670;2023-08-08T05:49:59;100120.94;;;16.20;79.98
41712;BME280;27399;51.516;13.670;2023-08-08T05:52:24;100129.19;;;15.90;79.64
41712;BME280;27399;51.516;13.670;2023-08-08T05:54:50;100121.13;;;16.16;80.03
41712;BME280;27399;51.516;13.670;2023-08-08T05:57:15;100123.00;;;16.14;79.96
41712;BME280;27399;51.516;13.670;2023-08-08T05:59:41;100121.78;;;16.22;79.74
41712;BME280;27399;51.516;13.670;2023-08-08T06:02:10;100119.81;;;16.27;78.67
41712;BME280;27399;51.516;13.670;2023-08-08T06:04:35;100112.38;;;16.34;79.06
41712;BME280;27399;51.516;13.670;2023-08-08T06:07:01;100119.19;;;16.45;79.27
41712;BME280;27399;51.516;13.670;2023-08-08T06:09:27;100119.56;;;16.34;78.82
41712;BME280;27399;51.516;13.670;2023-08-08T06:11:53;100107.13;;;16.55;78.65
41712;BME280;27399;51.516;13.670;2023-08-08T06:14:19;100123.66;;;16.44;79.42
41712;BME280;27399;51.516;13.670;2023-08-08T06:16:44;100118.09;;;16.49;78.53
41712;BME280;27399;51.516;13.670;2023-08-08T06:19:11;100118.06;;;16.50;79.01
41712;BME280;27399;51.516;13.670;2023-08-08T06:21:39;100115.53;;;16.69;78.22
41712;BME280;27399;51.516;13.670;2023-08-08T06:24:04;100118.41;;;16.65;78.22
41712;BME280;27399;51.516;13.670;2023-08-08T06:26:30;100117.00;;;16.54;79.05
41712;BME280;27399;51.516;13.670;2023-08-08T06:28:56;100116.28;;;16.73;78.54
41712;BME280;27399;51.516;13.670;2023-08-08T06:31:21;100114.28;;;16.56;77.82
41712;BME280;27399;51.516;13.670;2023-08-08T06:33:47;100122.06;;;17.10;77.87
41712;BME280;27399;51.516;13.670;2023-08-08T06:36:13;100111.13;;;16.91;77.26
41712;BME280;27399;51.516;13.670;2023-08-08T06:38:39;100123.31;;;16.77;78.04
41712;BME280;27399;51.516;13.670;2023-08-08T06:41:05;100131.63;;;16.95;77.22
41712;BME280;27399;51.516;13.670;2023-08-08T06:43:31;100124.72;;;17.11;77.21
41712;BME280;27399;51.516;13.670;2023-08-08T06:45:57;100133.78;;;16.61;76.98
41712;BME280;27399;51.516;13.670;2023-08-08T06:48:24;100123.06;;;16.83;77.57
41712;BME280;27399;51.516;13.670;2023-08-08T06:50:49;100125.53;;;16.66;77.74
41712;BME280;27399;51.516;13.670;2023-08-08T06:53:15;100122.19;;;16.83;77.06
41712;BME280;27399;51.516;13.670;2023-08-08T06:55:41;100124.06;;;16.81;77.47
41712;BME280;27399;51.516;13.670;2023-08-08T06:58:06;100127.41;;;16.64;77.76
41712;BME280;27399;51.516;13.670;2023-08-08T07:00:32;100125.06;;;16.78;77.04
41712;BME280;27399;51.516;13.670;2023-08-08T07:02:58;100129.97;;;16.91;76.34
41712;BME280;27399;51.516;13.670;2023-08-08T07:05:23;100127.78;;;17.02;76.36
41712;BME280;27399;51.516;13.670;2023-08-08T07:07:52;100128.69;;;16.77;76.50
41712;BME280;27399;51.516;13.670;2023-08-08T07:10:19;100121.06;;;16.88;76.77
41712;BME280;27399;51.516;13.670;2023-08-08T07:12:45;100121.63;;;16.75;76.50
41712;BME280;27399;51.516;13.670;2023-08-08T07:15:11;100118.19;;;16.47;77.12
41712;BME280;27399;51.516;13.670;2023-08-08T07:17:37;100116.44;;;16.70;77.34
41712;BME280;27399;51.516;13.670;2023-08-08T07:20:03;100119.91;;;16.72;76.78
41712;BME280;27399;51.516;13.670;2023-08-08T07:22:31;100112.25;;;16.61;77.36
41712;BME280;27399;51.516;13.670;2023-08-08T07:24:58;100112.78;;;16.95;77.06
41712;BME280;27399;51.516;13.670;2023-08-08T07:27:23;100123.38;;;16.99;76.11
41712;BME280;27399;51.516;13.670;2023-08-08T07:29:49;100108.63;;;16.86;76.63
41712;BME280;27399;51.516;13.670;2023-08-08T07:32:15;100120.88;;;16.71;76.95
41712;BME280;27399;51.516;13.670;2023-08-08T07:34:41;100131.19;;;16.60;77.30
41712;BME280;27399;51.516;13.670;2023-08-08T07:37:06;100104.56;;;16.74;76.82
41712;BME280;27399;51.516;13.670;2023-08-08T07:39:32;100111.13;;;16.91;76.52
41712;BME280;27399;51.516;13.670;2023-08-08T07:41:57;100122.59;;;16.72;76.94
41712;BME280;27399;51.516;13.670;2023-08-08T07:44:23;100116.63;;;16.87;76.81
41712;BME280;27399;51.516;13.670;2023-08-08T07:46:49;100120.53;;;16.56;77.05
41712;BME280;27399;51.516;13.670;2023-08-08T07:49:14;100127.28;;;16.91;76.44
41712;BME280;27399;51.516;13.670;2023-08-08T07:51:40;100117.94;;;16.77;77.56
41712;BME280;27399;51.516;13.670;2023-08-08T07:54:06;100115.69;;;16.88;77.11
41712;BME280;27399;51.516;13.670;2023-08-08T07:56:34;100126.34;;;16.92;76.92
41712;BME280;27399;51.516;13.670;2023-08-08T07:59:00;100119.63;;;16.80;76.86
41712;BME280;27399;51.516;13.670;2023-08-08T08:01:27;100121.19;;;17.09;76.45
41712;BME280;27399;51.516;13.670;2023-08-08T08:03:53;100115.00;;;17.29;76.82
41712;BME280;27399;51.516;13.670;2023-08-08T08:06:19;100109.91;;;17.22;76.81
41712;BME280;27399;51.516;13.670;2023-08-08T08:08:45;100110.97;;;17.17;77.00
41712;BME280;27399;51.516;13.670;2023-08-08T08:11:10;100114.88;;;16.86;76.35
41712;BME280;27399;51.516;13.670;2023-08-08T08:13:38;100123.97;;;16.84;77.19
41712;BME280;27399;51.516;13.670;2023-08-08T08:16:04;100120.19;;;16.88;76.77
41712;BME280;27399;51.516;13.670;2023-08-08T08:18:29;100113.47;;;17.00;77.28
41712;BME280;27399;51.516;13.670;2023-08-08T08:20:55;100112.66;;;17.42;77.49
41712;BME280;27399;51.516;13.670;2023-08-08T08:23:21;100115.88;;;17.30;77.33
41712;BME280;27399;51.516;13.670;2023-08-08T08:25:47;100124.44;;;17.17;77.08
41712;BME280;27399;51.516;13.670;2023-08-08T08:28:14;100108.88;;;17.46;76.51
41712;BME280;27399;51.516;13.670;2023-08-08T08:30:40;100109.03;;;17.43;76.93
41712;BME280;27399;51.516;13.670;2023-08-08T08:33:05;100109.88;;;17.66;76.70
41712;BME280;27399;51.516;13.670;2023-08-08T08:35:34;100107.63;;;17.55;76.76
41712;BME280;27399;51.516;13.670;2023-08-08T08:38:00;100098.06;;;17.89;75.97
41712;BME280;27399;51.516;13.670;2023-08-08T08:40:27;100096.66;;;17.80;76.58
41712;BME280;27399;51.516;13.670;2023-08-08T08:42:53;100099.53;;;17.76;76.14
41712;BME280;27399;51.516;13.670;2023-08-08T08:45:20;100095.81;;;17.78;76.17
41712;BME280;27399;51.516;13.670;2023-08-08T08:47:47;100097.25;;;17.66;76.71
41712;BME280;27399;51.516;13.670;2023-08-08T08:50:15;100092.88;;;17.64;75.71
41712;BME280;27399;51.516;13.670;2023-08-08T08:52:42;100092.75;;;17.88;75.41
41712;BME280;27399;51.516;13.670;2023-08-08T08:55:08;100092.28;;;17.99;75.33
41712;BME280;27399;51.516;13.670;2023-08-08T08:57:34;100096.41;;;18.07;76.24
41712;BME280;27399;51.516;13.670;2023-08-08T09:00:01;100093.94;;;18.22;75.70
41712;BME280;27399;51.516;13.670;2023-08-08T09:02:27;100092.00;;;18.05;75.12
41712;BME280;27399;51.516;13.670;2023-08-08T09:04:52;100099.44;;;18.20;74.92
41712;BME280;27399;51.516;13.670;2023-08-08T09:07:20;100102.94;;;18.41;74.17
41712;BME280;27399;51.516;13.670;2023-08-08T09:09:49;100102.97;;;18.61;74.05
41712;BME280;27399;51.516;13.670;2023-08-08T09:12:14;100109.19;;;18.82;75.02
41712;BME280;27399;51.516;13.670;2023-08-08T09:14:41;100106.81;;;18.95;74.24
41712;BME280;27399;51.516;13.670;2023-08-08T09:17:14;100104.19;;;18.93;74.35
41712;BME280;27399;51.516;13.670;2023-08-08T09:19:44;100103.00;;;18.80;74.19
41712;BME280;27399;51.516;13.670;2023-08-08T09:22:10;100101.69;;;18.88;73.88
41712;BME280;27399;51.516;13.670;2023-08-08T09:24:40;100107.88;;;19.10;73.50
41712;BME280;27399;51.516;13.670;2023-08-08T09:27:07;100097.38;;;19.03;74.17
41712;BME280;27399;51.516;13.670;2023-08-08T09:29:33;100097.94;;;18.91;73.41
41712;BME280;27399;51.516;13.670;2023-08-08T09:31:59;100108.97;;;18.86;73.55
41712;BME280;27399;51.516;13.670;2023-08-08T09:34:25;100114.28;;;18.88;74.40
41712;BME280;27399;51.516;13.670;2023-08-08T09:36:52;100103.47;;;18.69;72.84
41712;BME280;27399;51.516;13.670;2023-08-08T09:39:18;100109.88;;;18.47;74.04
41712;BME280;27399;51.516;13.670;2023-08-08T09:41:46;100110.16;;;18.81;73.91
41712;BME280;27399;51.516;13.670;2023-08-08T09:44:12;100110.81;;;18.27;73.66
41712;BME280;27399;51.516;13.670;2023-08-08T09:46:38;100096.06;;;18.74;74.58
41712;BME280;27399;51.516;13.670;2023-08-08T09:49:05;100099.38;;;18.41;74.31
41712;BME280;27399;51.516;13.670;2023-08-08T09:51:32;100105.09;;;18.54;74.41
41712;BME280;27399;51.516;13.670;2023-08-08T09:53:59;100104.66;;;18.44;73.90
41712;BME280;27399;51.516;13.670;2023-08-08T09:56:26;100111.59;;;18.69;74.61
41712;BME280;27399;51.516;13.670;2023-08-08T09:58:52;100113.44;;;18.28;75.09
41712;BME280;27399;51.516;13.670;2023-08-08T10:01:20;100106.41;;;18.45;74.86
41712;BME280;27399;51.516;13.670;2023-08-08T10:03:45;100103.34;;;18.72;74.88
41712;BME280;27399;51.516;13.670;2023-08-08T10:06:12;100116.91;;;18.51;74.55
41712;BME280;27399;51.516;13.670;2023-08-08T10:08:38;100107.13;;;18.49;75.11
41712;BME280;27399;51.516;13.670;2023-08-08T10:11:05;100114.59;;;18.63;75.79
41712;BME280;27399;51.516;13.670;2023-08-08T10:13:34;100100.19;;;18.43;74.98
41712;BME280;27399;51.516;13.670;2023-08-08T10:16:04;100091.81;;;18.30;75.60
41712;BME280;27399;51.516;13.670;2023-08-08T10:18:33;100098.09;;;18.10;75.56
41712;BME280;27399;51.516;13.670;2023-08-08T10:20:58;100093.69;;;18.28;75.12
41712;BME280;27399;51.516;13.670;2023-08-08T10:23:24;100084.91;;;18.23;75.78
41712;BME280;27399;51.516;13.670;2023-08-08T10:25:51;100088.41;;;18.25;75.31
41712;BME280;27399;51.516;13.670;2023-08-08T10:28:20;100091.81;;;18.30;75.03
41712;BME280;27399;51.516;13.670;2023-08-08T10:30:47;100083.25;;;18.58;74.58
41712;BME280;27399;51.516;13.670;2023-08-08T10:33:22;100081.00;;;18.49;75.58
41712;BME280;27399;51.516;13.670;2023-08-08T10:36:07;100090.19;;;18.26;74.09
41712;BME280;27399;51.516;13.670;2023-08-08T10:41:09;100084.66;;;18.86;73.73
41712;BME280;27399;51.516;13.670;2023-08-08T10:43:35;100085.34;;;18.72;73.07
41712;BME280;27399;51.516;13.670;2023-08-08T10:46:02;100076.78;;;18.82;73.08
41712;BME280;27399;51.516;13.670;2023-08-08T10:48:28;100087.72;;;18.40;72.54
41712;BME280;27399;51.516;13.670;2023-08-08T10:50:57;100068.16;;;18.73;72.93
41712;BME280;27399;51.516;13.670;2023-08-08T10:53:27;100074.13;;;18.80;73.29
41712;BME280;27399;51.516;13.670;2023-08-08T10:56:04;100084.56;;;18.88;72.44
41712;BME280;27399;51.516;13.670;2023-08-08T10:58:36;100082.41;;;18.96;72.14
41712;BME280;27399;51.516;13.670;2023-08-08T11:01:02;100070.97;;;18.89;72.19
41712;BME280;27399;51.516;13.670;2023-08-08T11:03:34;100073.28;;;18.99;72.47
41712;BME280;27399;51.516;13.670;2023-08-08T11:06:00;100061.81;;;19.30;72.08
41712;BME280;27399;51.516;13.670;2023-08-08T11:08:27;100056.88;;;19.39;72.75
41712;BME280;27399;51.516;13.670;2023-08-08T11:10:52;100051.38;;;19.75;71.49
41712;BME280;27399;51.516;13.670;2023-08-08T11:13:19;100041.53;;;19.57;72.22
41712;BME280;27399;51.516;13.670;2023-08-08T11:15:45;100031.38;;;20.13;71.51
41712;BME280;27399;51.516;13.670;2023-08-08T11:18:10;100052.56;;;20.05;70.79
41712;BME280;27399;51.516;13.670;2023-08-08T11:20:36;100048.44;;;20.31;70.42
41712;BME280;27399;51.516;13.670;2023-08-08T11:23:03;100034.84;;;20.49;68.17
41712;BME280;27399;51.516;13.670;2023-08-08T11:25:31;100034.41;;;20.72;68.54
41712;BME280;27399;51.516;13.670;2023-08-08T11:27:58;100043.88;;;21.13;68.48
41712;BME280;27399;51.516;13.670;2023-08-08T11:30:27;100031.34;;;21.27;67.51
41712;BME280;27399;51.516;13.670;2023-08-08T11:32:53;100030.13;;;21.47;65.95
41712;BME280;27399;51.516;13.670;2023-08-08T11:35:22;100023.41;;;21.38;65.87
41712;BME280;27399;51.516;13.670;2023-08-08T11:37:51;100036.66;;;21.59;64.96
41712;BME280;27399;51.516;13.670;2023-08-08T11:40:17;100024.41;;;21.37;64.11
41712;BME280;27399;51.516;13.670;2023-08-08T11:42:44;100027.94;;;21.07;63.91
41712;BME280;27399;51.516;13.670;2023-08-08T11:45:13;100017.22;;;20.89;64.82
41712;BME280;27399;51.516;13.670;2023-08-08T11:47:39;100022.47;;;20.93;65.78
41712;BME280;27399;51.516;13.670;2023-08-08T11:50:07;100015.75;;;20.84;64.69
41712;BME280;27399;51.516;13.670;2023-08-08T11:52:35;100010.19;;;20.53;65.36
41712;BME280;27399;51.516;13.670;2023-08-08T11:55:01;100011.97;;;20.86;65.70
41712;BME280;27399;51.516;13.670;2023-08-08T11:57:27;100009.25;;;21.33;66.45
41712;BME280;27399;51.516;13.670;2023-08-08T11:59:56;100023.69;;;20.87;65.10
41712;BME280;27399;51.516;13.670;2023-08-08T12:02:23;99987.13;;;20.94;64.83
41712;BME280;27399;51.516;13.670;2023-08-08T12:04:49;99995.72;;;20.86;66.59
41712;BME280;27399;51.516;13.670;2023-08-08T12:07:16;100010.16;;;21.17;66.58
41712;BME280;27399;51.516;13.670;2023-08-08T12:09:42;99997.84;;;21.42;67.05
41712;BME280;27399;51.516;13.670;2023-08-08T12:12:08;100004.28;;;20.95;66.10
41712;BME280;27399;51.516;13.670;2023-08-08T12:14:38;99999.19;;;21.35;66.87
41712;BME280;27399;51.516;13.670;2023-08-08T12:17:05;99990.75;;;21.70;66.69
41712;BME280;27399;51.516;13.670;2023-08-08T12:19:30;100017.13;;;20.91;64.16
41712;BME280;27399;51.516;13.670;2023-08-08T12:21:56;99999.94;;;21.23;64.87
41712;BME280;27399;51.516;13.670;2023-08-08T12:24:21;99997.25;;;21.07;66.16
41712;BME280;27399;51.516;13.670;2023-08-08T12:26:47;99999.59;;;21.13;64.36
41712;BME280;27399;51.516;13.670;2023-08-08T12:29:13;100002.22;;;21.14;63.97
41712;BME280;27399;51.516;13.670;2023-08-08T12:31:39;99984.06;;;21.31;64.17
41712;BME280;27399;51.516;13.670;2023-08-08T12:34:05;100000.09;;;21.19;63.66
41712;BME280;27399;51.516;13.670;2023-08-08T12:36:31;99987.84;;;21.28;65.03
41712;BME280;27399;51.516;13.670;2023-08-08T12:38:57;99986.50;;;21.35;63.68
41712;BME280;27399;51.516;13.670;2023-08-08T12:41:23;99978.31;;;21.51;64.04